createdAt,value
2023-04-10T00:07:18.132Z,69.33779264214047
2023-04-10T00:13:36.927Z,70.17725752508362
2023-04-10T00:19:55.563Z,68.47826086956522
2023-04-10T00:37:27.786Z,66.90969899665552
2023-04-10T00:43:51.571Z,67.24414715719064
2023-04-10T01:01:17.875Z,69.6989966555184
2023-04-10T01:15:10.801Z,71.16722408026756
2023-04-10T01:21:29.137Z,71.09698996655518
2023-04-10T01:27:48.120Z,72.55183946488295
2023-04-10T01:38:15.338Z,74.53177257525084
2023-04-10T01:48:49.363Z,78.8361204013378
2023-04-10T02:05:17.261Z,80.26421404682274
2023-04-10T02:13:32.719Z,78.77591973244147
2023-04-10T02:25:51.229Z,79.95986622073579
2023-04-10T02:41:52.604Z,82.15050167224081
2023-04-10T02:52:56.963Z,80.11705685618729
2023-04-10T02:59:15.110Z,83.2675585284281
2023-04-10T03:05:33.097Z,81.82608695652173
2023-04-10T03:13:27.862Z,84.52508361204013
2023-04-10T03:20:38.139Z,83.88963210702342
2023-04-10T03:26:56.422Z,83.02675585284281
2023-04-10T03:33:14.026Z,84.57859531772576
2023-04-10T03:39:31.674Z,85.06020066889631
2023-04-10T03:45:49.734Z,85.32107023411372
2023-04-10T03:57:39.985Z,87.16722408026756
2023-04-10T04:14:26.156Z,85.12709030100335
2023-04-10T04:20:44.264Z,84.63879598662207
2023-04-10T04:27:02.057Z,85.4648829431438
2023-04-10T04:33:19.805Z,86.123745819398
2023-04-10T04:48:13.316Z,85.37792642140468
2023-04-10T04:56:42.172Z,84.80936454849498
2023-04-10T05:05:00.152Z,86.06354515050167
2023-04-10T05:17:38.497Z,84.14046822742475
2023-04-10T05:23:59.175Z,84.09698996655518
2023-04-10T05:38:00.478Z,83.17725752508362
2023-04-10T05:44:20.702Z,81.05685618729098
2023-04-10T06:05:07.168Z,80.42809364548495
2023-04-10T06:11:27.545Z,79.92307692307692
2023-04-10T06:26:42.438Z,77.28428093645485
2023-04-10T06:37:32.051Z,75.64214046822742
2023-04-10T06:43:52.706Z,73.91973244147157
2023-04-10T06:52:23.648Z,72.35785953177258
2023-04-10T07:01:36.045Z,70.76923076923077
2023-04-10T07:07:56.736Z,69.99665551839465
2023-04-10T07:16:17.612Z,68.30434782608695
2023-04-10T07:22:38.051Z,66.72240802675586
2023-04-10T07:28:58.762Z,64.89966555183946
2023-04-10T07:35:19.435Z,62.27759197324415
2023-04-10T07:53:24.698Z,58.75585284280937
2023-04-10T08:00:11.289Z,57.38795986622073
2023-04-10T08:10:48.339Z,50.90969899665552
2023-04-10T08:17:09.406Z,48.83277591973244
2023-04-10T08:23:30.308Z,44.31772575250836
2023-04-10T08:29:51.751Z,42.60200668896321
2023-04-10T08:36:13.817Z,41.953177257525084
2023-04-10T08:42:35.748Z,40.5685618729097
2023-04-10T08:50:30.192Z,40.05016722408027
2023-04-10T08:58:57.350Z,37.64882943143812
2023-04-10T09:05:18.447Z,35.58862876254181
2023-04-10T09:11:40.244Z,35.123745819397996
2023-04-10T09:18:02.101Z,31.387959866220736
2023-04-10T09:24:22.165Z,29.036789297658864
2023-04-10T09:30:42.506Z,26.752508361204015
2023-04-10T09:37:02.694Z,22.983277591973245
2023-04-10T09:43:21.894Z,21.14715719063545
2023-04-10T09:57:01.291Z,21.0
2023-04-10T10:04:20.999Z,21.183946488294314
2023-04-10T10:13:31.405Z,21.418060200668897
2023-04-10T10:19:51.054Z,20.387959866220736
2023-04-10T10:26:10.347Z,20.578595317725753
2023-04-10T10:32:29.887Z,19.70903010033445
2023-04-10T10:38:49.986Z,19.99665551839465
2023-04-10T10:45:09.552Z,19.307692307692307
2023-04-10T10:51:29.178Z,19.682274247491637
2023-04-10T10:57:49.710Z,20.240802675585286
2023-04-10T11:04:09.324Z,18.79933110367893
2023-04-10T11:25:25.076Z,18.705685618729095
2023-04-10T11:35:50.697Z,17.501672240802677
2023-04-10T11:42:12.433Z,17.297658862876254
2023-04-10T11:48:35.000Z,18.096989966555185
2023-04-10T11:54:55.593Z,17.642140468227424
2023-04-10T12:01:17.874Z,17.25083612040134
2023-04-10T12:07:37.836Z,15.605351170568563
2023-04-10T12:13:57.943Z,15.809364548494983
2023-04-10T12:20:17.730Z,15.558528428093645
2023-04-10T12:26:37.718Z,14.528428093645484
2023-04-10T12:32:57.800Z,15.73913043478261
2023-04-10T12:39:24.389Z,13.698996655518394
2023-04-10T12:45:44.201Z,13.548494983277592
2023-04-10T12:52:04.333Z,14.361204013377927
2023-04-10T12:58:44.213Z,13.785953177257525
2023-04-10T13:11:51.932Z,13.08361204013378
2023-04-10T13:19:47.261Z,12.23076923076923
2023-04-10T13:26:09.122Z,11.461538461538462
2023-04-10T13:39:46.935Z,11.347826086956522
2023-04-10T13:46:06.586Z,11.525083612040135
2023-04-10T13:59:14.709Z,9.508361204013378
2023-04-10T14:05:35.375Z,9.785953177257525
2023-04-10T14:11:55.427Z,9.274247491638796
2023-04-10T14:18:15.243Z,8.906354515050166
2023-04-10T14:24:35.072Z,8.923076923076923
2023-04-10T14:30:55.052Z,8.033444816053512
2023-04-10T14:43:10.446Z,7.464882943143813
2023-04-10T14:49:30.774Z,8.852842809364548
2023-04-10T14:57:00.675Z,9.19732441471572
2023-04-10T15:09:50.934Z,9.558528428093645
2023-04-10T15:16:11.256Z,8.090301003344482
2023-04-10T15:22:31.097Z,8.65551839464883
2023-04-10T15:28:51.877Z,9.280936454849499
2023-04-10T15:35:12.340Z,8.377926421404682
2023-04-10T15:41:32.968Z,8.531772575250836
2023-04-10T15:53:03.532Z,7.511705685618729
2023-04-10T15:59:27.530Z,8.006688963210703
2023-04-10T16:08:15.562Z,7.280936454849498
2023-04-10T16:17:29.294Z,7.2842809364548495
2023-04-10T16:23:50.510Z,7.441471571906354
2023-04-10T16:30:11.029Z,6.936454849498328
2023-04-10T16:36:32.206Z,6.929765886287625
2023-04-10T16:42:52.472Z,6.578595317725752
2023-04-10T16:50:45.066Z,6.966555183946488
2023-04-10T16:57:06.044Z,6.408026755852843
2023-04-10T17:03:26.746Z,5.471571906354515
2023-04-10T17:09:48.311Z,5.618729096989966
2023-04-10T17:17:35.272Z,5.535117056856187
2023-04-10T17:26:41.360Z,6.096989966555184
2023-04-10T17:32:59.910Z,5.120401337792642
2023-04-10T17:39:18.707Z,5.565217391304348
2023-04-10T17:45:49.620Z,3.6622073578595318
2023-04-10T17:57:51.735Z,2.82943143812709
2023-04-10T18:04:13.291Z,2.9966555183946486
2023-04-10T18:16:14.289Z,3.5050167224080266
2023-04-10T18:29:01.283Z,4.234113712374582
2023-04-10T18:40:47.053Z,4.408026755852843
2023-04-10T18:47:05.188Z,4.538461538461538
2023-04-10T18:53:23.263Z,4.588628762541806
2023-04-10T18:59:42.162Z,4.969899665551839
2023-04-10T19:07:56.632Z,5.474916387959866
2023-04-10T19:14:20.872Z,5.712374581939799
2023-04-10T19:20:49.972Z,5.046822742474917
2023-04-10T19:27:09.876Z,5.130434782608695
2023-04-10T19:33:28.424Z,5.344481605351171
2023-04-10T19:39:53.478Z,5.147157190635451
2023-04-10T19:46:11.738Z,5.752508361204013
2023-04-10T19:52:31.817Z,5.3478260869565215
2023-04-10T20:05:48.702Z,5.889632107023411
2023-04-10T20:12:12.093Z,6.933110367892977
2023-04-10T20:18:33.566Z,7.832775919732441
2023-04-10T20:24:54.196Z,8.468227424749164
2023-04-10T20:31:15.380Z,8.080267558528428
2023-04-10T20:37:38.441Z,7.575250836120401
2023-04-10T20:43:59.795Z,7.936454849498328
2023-04-10T20:50:22.213Z,7.464882943143813
2023-04-10T20:57:11.511Z,6.642140468227424
2023-04-10T21:03:31.487Z,6.381270903010034
2023-04-10T21:17:18.833Z,5.11371237458194
2023-04-10T21:28:31.649Z,3.769230769230769
2023-04-10T21:37:26.474Z,3.983277591973244
2023-04-10T21:43:49.655Z,3.8461538461538463
2023-04-10T21:50:09.334Z,4.2274247491638794
2023-04-10T21:56:34.302Z,3.959866220735786
2023-04-10T22:03:09.556Z,3.5384615384615383
2023-04-10T22:09:32.745Z,4.464882943143813
2023-04-10T22:15:56.514Z,3.8862876254180603
2023-04-10T22:24:49.841Z,4.394648829431438
2023-04-10T22:31:11.034Z,4.053511705685619
2023-04-10T22:37:32.496Z,3.822742474916388
2023-04-10T22:43:52.096Z,3.6354515050167224
2023-04-10T22:50:12.440Z,3.37123745819398
2023-04-10T22:56:33.168Z,2.9565217391304346
2023-04-10T23:02:53.843Z,2.8327759197324416
2023-04-10T23:09:15.018Z,2.451505016722408
2023-04-10T23:15:38.506Z,2.769230769230769
2023-04-10T23:22:01.183Z,2.4949832775919734
2023-04-10T23:28:21.271Z,2.5551839464882944
2023-04-10T23:39:30.950Z,2.903010033444816
2023-04-10T23:45:54.382Z,3.2675585284280935
2023-04-10T23:55:50.010Z,3.511705685618729
